Time;durP1;ratioP1;P1;durP2;ratioP2;P2;SDS_P1;SDS_P2;PMS_P1;PMS_P2;Temp;Humidity;BMP_temperature;BMP_pressure;BME280_temperature;BME280_humidity;BME280_pressure;Samples;Min_cycle;Max_cycle;Signal;HPM_P1;HPM_P2
2021/09/01 00:01:23;;;;;;;13.10;3.83;;;;;;;16.24;100.00;102705.94;5163976;28;20468;-68
2021/09/01 00:03:55;;;;;;;15.05;5.07;;;;;;;16.24;100.00;102703.28;5176192;28;20311;-68
2021/09/01 00:06:26;;;;;;;12.32;3.92;;;;;;;16.04;100.00;102679.28;5173153;28;20031;-68
2021/09/01 00:08:57;;;;;;;13.07;4.18;;;;;;;16.24;100.00;102716.50;5172279;28;20033;-68
2021/09/01 00:11:28;;;;;;;13.25;4.72;;;;;;;16.24;100.00;102713.88;5170731;28;20035;-68
2021/09/01 00:14:00;;;;;;;13.17;4.57;;;;;;;16.21;100.00;102712.34;5177047;28;20031;-68
2021/09/01 00:16:31;;;;;;;10.82;3.70;;;;;;;16.26;100.00;102709.31;5172237;28;20641;-68
2021/09/01 00:19:06;;;;;;;11.00;4.18;;;;;;;16.28;100.00;102708.22;5168654;28;20043;-68
2021/09/01 00:21:38;;;;;;;14.57;4.45;;;;;;;16.24;100.00;102706.78;5179282;28;20484;-68
2021/09/01 00:24:10;;;;;;;13.20;4.25;;;;;;;16.28;100.00;102715.31;5175251;28;20063;-68
2021/09/01 00:26:42;;;;;;;12.90;4.28;;;;;;;16.34;100.00;102712.19;5176769;28;20019;-68
2021/09/01 00:29:13;;;;;;;10.00;3.85;;;;;;;16.26;100.00;102706.66;5161364;28;20038;-68
2021/09/01 00:31:45;;;;;;;11.18;4.20;;;;;;;16.26;100.00;102707.50;5176658;28;20027;-68
2021/09/01 00:34:16;;;;;;;11.38;3.95;;;;;;;16.28;100.00;102708.22;5173609;28;20034;-68
2021/09/01 00:36:47;;;;;;;14.63;4.10;;;;;;;16.21;100.00;102701.75;5173431;28;20436;-68
2021/09/01 00:39:19;;;;;;;10.73;3.90;;;;;;;16.25;100.00;102703.19;5175262;28;20022;-68
2021/09/01 00:41:50;;;;;;;15.05;4.82;;;;;;;16.24;100.00;102706.78;5173515;28;20120;-68
2021/09/01 00:44:25;;;;;;;13.93;4.38;;;;;;;16.29;100.00;102704.63;5174903;28;20022;-68
2021/09/01 00:46:57;;;;;;;15.13;4.35;;;;;;;16.16;100.00;102709.19;5171434;28;20532;-68
2021/09/01 00:49:30;;;;;;;16.27;4.32;;;;;;;16.22;100.00;102706.06;5177300;28;20063;-67
2021/09/01 00:52:02;;;;;;;;;;;;;;;16.55;100.00;102704.31;5166850;28;20615;-68
2021/09/01 00:54:33;;;;;;;16.05;4.80;;;;;;;16.22;100.00;102706.06;5169827;28;19914;-68
2021/09/01 00:57:07;;;;;;;13.27;4.30;;;;;;;16.18;100.00;102706.44;5172500;28;20042;-68
2021/09/01 00:59:40;;;;;;;11.73;4.40;;;;;;;16.18;100.00;102709.94;5168453;28;20421;-68
2021/09/01 01:02:12;;;;;;;13.00;4.55;;;;;;;16.18;100.00;102715.22;5171052;28;20038;-68
2021/09/01 01:04:44;;;;;;;14.50;4.20;;;;;;;16.19;100.00;102705.47;5176670;28;20027;-68
2021/09/01 01:07:15;;;;;;;9.97;3.60;;;;;;;16.18;100.00;102709.94;5176206;28;20011;-68
2021/09/01 01:09:48;;;;;;;13.63;5.10;;;;;;;16.14;100.00;102711.13;5168088;28;20062;-68
2021/09/01 01:12:20;;;;;;;14.02;4.53;;;;;;;16.18;100.00;102701.16;5167225;28;20027;-68
2021/09/01 01:14:52;;;;;;;15.15;4.55;;;;;;;16.14;100.00;102700.56;5175544;28;20031;-68
2021/09/01 01:17:24;;;;;;;10.20;4.00;;;;;;;16.16;100.00;102698.63;5167862;28;20031;-68
2021/09/01 01:19:55;;;;;;;9.93;3.83;;;;;;;16.13;100.00;102701.50;5177746;28;20030;-68
2021/09/01 01:22:26;;;;;;;14.48;4.13;;;;;;;16.15;100.00;102707.50;5168485;28;20023;-68
2021/09/01 01:24:59;;;;;;;21.50;6.03;;;;;;;16.14;100.00;102707.63;5174245;28;20102;-68
2021/09/01 01:27:44;;;;;;;14.00;4.00;;;;;;;16.19;100.00;102703.66;5175059;28;20030;-68
2021/09/01 01:30:20;;;;;;;11.77;4.13;;;;;;;16.15;100.00;102704.03;5169259;28;20650;-68
2021/09/01 01:32:53;;;;;;;14.65;4.00;;;;;;;16.08;100.00;102711.59;5172591;28;20027;-68
2021/09/01 01:35:40;;;;;;;11.77;4.53;;;;;;;16.20;100.00;102707.97;5169855;28;20027;-68
2021/09/01 01:38:17;;;;;;;13.20;4.50;;;;;;;16.13;100.00;102708.59;5164958;28;20362;-68
2021/09/01 01:40:48;;;;;;;13.38;4.20;;;;;;;16.06;100.00;102705.56;5171223;28;20035;-68
2021/09/01 01:43:20;;;;;;;13.30;4.28;;;;;;;16.04;100.00;102705.72;5172865;28;20034;-68
2021/09/01 01:45:51;;;;;;;12.38;4.07;;;;;;;16.08;100.00;102714.25;5172181;28;20023;-68
2021/09/01 01:48:22;;;;;;;14.40;4.63;;;;;;;16.11;100.00;102718.47;5174136;28;20078;-68
2021/09/01 01:50:54;;;;;;;14.70;4.25;;;;;;;16.13;100.00;102714.72;5174890;28;20026;-68
2021/09/01 01:53:25;;;;;;;12.07;4.47;;;;;;;16.08;100.00;102716.88;5173055;28;20030;-68
2021/09/01 01:55:56;;;;;;;12.07;4.35;;;;;;;16.09;100.00;102707.16;5167884;28;20023;-68
2021/09/01 01:58:28;;;;;;;14.00;4.47;;;;;;;16.11;100.00;102715.81;5169046;28;20018;-68
2021/09/01 02:00:59;;;;;;;14.82;4.25;;;;;;;16.10;100.00;102714.97;5171550;28;20030;-68
2021/09/01 02:03:30;;;;;;;11.00;3.70;;;;;;;16.10;100.00;102724.69;5165893;28;20516;-68
2021/09/01 02:06:01;;;;;;;17.52;5.13;;;;;;;16.09;100.00;102718.56;5168157;28;20425;-68
2021/09/01 02:08:33;;;;;;;13.02;4.60;;;;;;;16.09;100.00;102718.56;5167234;28;20031;-68
2021/09/01 02:11:04;;;;;;;10.95;4.30;;;;;;;16.14;100.00;102724.34;5161226;28;20102;-69
2021/09/01 02:13:35;;;;;;;12.52;3.83;;;;;;;16.07;100.00;102722.31;5166485;28;20072;-68
2021/09/01 02:16:06;;;;;;;12.23;4.63;;;;;;;16.03;100.00;102714.63;5175036;28;20054;-69
2021/09/01 02:18:38;;;;;;;12.82;3.95;;;;;;;16.04;100.00;102715.44;5171850;28;20022;-68
2021/09/01 02:21:09;;;;;;;13.75;4.35;;;;;;;16.10;100.00;102717.63;5175947;28;20062;-68
2021/09/01 02:23:40;;;;;;;14.07;4.90;;;;;;;16.10;100.00;102716.75;5176379;28;20038;-68
2021/09/01 02:26:11;;;;;;;13.43;5.13;;;;;;;16.11;100.00;102719.28;5175894;28;20592;-68
2021/09/01 02:28:43;;;;;;;10.00;4.28;;;;;;;16.13;100.00;102713.88;5174840;28;20448;-68
2021/09/01 02:31:14;;;;;;;13.15;5.10;;;;;;;16.09;100.00;102712.44;5167583;28;20042;-68
2021/09/01 02:33:45;;;;;;;16.77;5.32;;;;;;;16.08;100.00;102711.59;5164374;28;20126;-68
2021/09/01 02:36:17;;;;;;;11.82;4.70;;;;;;;16.07;100.00;102717.84;5172036;28;20049;-68
2021/09/01 02:38:48;;;;;;;12.27;4.75;;;;;;;16.05;100.00;102711.84;5170354;28;20030;-68
2021/09/01 02:41:22;;;;;;;12.80;4.18;;;;;;;16.03;100.00;102711.13;5176645;28;20023;-69
2021/09/01 02:43:53;;;;;;;15.93;4.30;;;;;;;16.03;100.00;102717.25;5170249;28;20034;-68
2021/09/01 02:46:25;;;;;;;12.25;4.43;;;;;;;16.03;100.00;102714.63;5173641;28;20034;-68
2021/09/01 02:48:56;;;;;;;11.73;4.28;;;;;;;16.11;100.00;102718.47;5176196;28;20045;-69
2021/09/01 02:51:27;;;;;;;13.93;4.40;;;;;;;16.06;100.00;102713.50;5175424;28;20019;-68
2021/09/01 02:53:59;;;;;;;10.48;4.15;;;;;;;16.06;100.00;102708.22;5168706;28;20061;-68
2021/09/01 02:56:31;;;;;;;13.50;4.47;;;;;;;16.03;100.00;102713.78;5174776;28;20030;-68
2021/09/01 02:59:02;;;;;;;12.35;4.47;;;;;;;16.06;100.00;102718.78;5164572;28;20494;-68
2021/09/01 03:01:33;;;;;;;12.40;3.95;;;;;;;15.99;100.00;102709.69;5173499;28;20045;-68
2021/09/01 03:04:05;;;;;;;14.57;4.75;;;;;;;15.99;100.00;102714.97;5172939;28;20401;-68
2021/09/01 03:06:36;;;;;;;12.20;4.25;;;;;;;15.99;100.00;102712.34;5170130;28;20440;-68
2021/09/01 03:09:07;;;;;;;10.87;4.07;;;;;;;15.91;100.00;102712.94;5176555;28;20085;-68
2021/09/01 03:11:38;;;;;;;15.10;4.32;;;;;;;15.95;100.00;102703.81;5162657;28;20286;-68
2021/09/01 03:14:10;;;;;;;15.10;4.80;;;;;;;15.96;100.00;102704.63;5166112;28;20122;-68
2021/09/01 03:16:41;;;;;;;14.85;5.20;;;;;;;15.95;100.00;102710.88;5185049;28;20029;-68
2021/09/01 03:19:12;;;;;;;13.40;4.85;;;;;;;15.91;100.00;102698.84;5167534;28;20046;-68
2021/09/01 03:21:43;;;;;;;18.08;5.05;;;;;;;15.93;100.00;102705.72;5168089;28;20094;-68
2021/09/01 03:24:15;;;;;;;10.70;4.82;;;;;;;15.96;100.00;102709.94;5177541;28;20037;-68
2021/09/01 03:26:46;;;;;;;11.10;4.65;;;;;;;15.96;100.00;102709.94;5177561;28;20035;-68
2021/09/01 03:29:18;;;;;;;11.40;4.40;;;;;;;15.85;100.00;102700.19;5173732;28;20116;-68
2021/09/01 03:31:49;;;;;;;12.80;4.18;;;;;;;15.96;100.00;102715.22;5178997;28;20026;-68
2021/09/01 03:34:20;;;;;;;12.88;4.63;;;;;;;15.86;100.00;102704.50;5177279;28;20019;-69
2021/09/01 03:36:52;;;;;;;13.02;5.25;;;;;;;15.86;100.00;102714.22;5174132;28;20623;-68
2021/09/01 03:39:23;;;;;;;14.45;4.55;;;;;;;15.79;100.00;102716.50;5171296;28;20480;-67
2021/09/01 03:41:54;;;;;;;11.05;4.65;;;;;;;15.76;100.00;102717.59;5179942;28;20054;-68
2021/09/01 03:44:26;;;;;;;14.18;5.25;;;;;;;15.75;100.00;102725.63;5169814;28;20432;-68
2021/09/01 03:46:57;;;;;;;14.43;5.38;;;;;;;15.74;100.00;102724.78;5168186;28;20374;-69
2021/09/01 03:49:28;;;;;;;14.75;5.20;;;;;;;15.81;100.00;102722.53;5171941;28;20034;-68
2021/09/01 03:52:01;;;;;;;15.27;5.50;;;;;;;15.71;100.00;102719.75;5178981;28;20057;-67
2021/09/01 03:54:32;;;;;;;12.25;4.63;;;;;;;15.72;100.00;102724.09;5167570;28;20031;-69
2021/09/01 03:57:03;;;;;;;15.65;5.43;;;;;;;15.71;100.00;102721.53;5167430;28;20435;-68
2021/09/01 03:59:34;;;;;;;12.88;5.45;;;;;;;15.69;100.00;102719.03;5173924;28;20027;-68
2021/09/01 04:02:07;;;;;;;16.80;5.63;;;;;;;15.69;100.00;102734.88;5174798;28;20031;-68
2021/09/01 04:04:38;;;;;;;11.90;5.97;;;;;;;15.70;100.00;102723.34;5175465;28;20042;-68
2021/09/01 04:07:09;;;;;;;16.55;5.75;;;;;;;15.67;100.00;102725.38;5170813;28;20019;-68
2021/09/01 04:09:41;;;;;;;11.30;5.47;;;;;;;15.68;100.00;102719.13;5175948;28;20039;-68
2021/09/01 04:12:12;;;;;;;14.88;5.53;;;;;;;15.70;100.00;102725.16;5179234;28;20432;-68
2021/09/01 04:14:43;;;;;;;16.27;6.47;;;;;;;15.70;100.00;102725.16;5172602;28;20030;-69
2021/09/01 04:17:15;;;;;;;13.32;5.50;;;;;;;15.69;100.00;102729.59;5177719;28;20027;-68
2021/09/01 04:19:46;;;;;;;17.30;5.45;;;;;;;15.69;100.00;102719.03;5178476;28;20076;-69
2021/09/01 04:22:17;;;;;;;15.18;5.40;;;;;;;15.71;100.00;102722.38;5175289;28;20443;-68
2021/09/01 04:24:48;;;;;;;15.13;5.30;;;;;;;15.70;100.00;102727.78;5167116;28;20030;-68
2021/09/01 04:27:20;;;;;;;11.82;5.38;;;;;;;15.69;100.00;102721.66;5169065;28;20035;-68
2021/09/01 04:29:51;;;;;;;12.02;5.85;;;;;;;15.69;100.00;102720.84;5176269;28;20031;-68
2021/09/01 04:32:22;;;;;;;12.52;5.40;;;;;;;15.68;100.00;102719.13;5165342;28;20081;-68
2021/09/01 04:34:54;;;;;;;10.13;5.63;;;;;;;15.69;100.00;102720.84;5175586;28;20026;-68
2021/09/01 04:37:25;;;;;;;15.43;6.30;;;;;;;15.69;100.00;102723.47;5167498;28;20093;-68
2021/09/01 04:39:56;;;;;;;15.63;5.65;;;;;;;15.67;100.00;102726.22;5171391;28;20027;-68
2021/09/01 04:42:28;;;;;;;12.13;5.32;;;;;;;15.69;100.00;102736.69;5178791;28;20029;-68
2021/09/01 04:44:59;;;;;;;16.70;5.63;;;;;;;15.70;100.00;102723.34;5175491;28;20488;-68
2021/09/01 04:47:30;;;;;;;17.92;5.32;;;;;;;15.70;100.00;102722.50;5163428;28;20043;-67
2021/09/01 04:50:02;;;;;;;13.38;5.35;;;;;;;15.67;100.00;102730.66;5174191;28;20030;-68
2021/09/01 04:52:33;;;;;;;13.70;5.50;;;;;;;15.67;100.00;102720.94;5173622;28;20080;-68
2021/09/01 04:55:06;;;;;;;13.70;5.53;;;;;;;15.68;100.00;102729.69;5172966;28;20031;-68
2021/09/01 04:57:37;;;;;;;16.13;5.47;;;;;;;15.68;100.00;102727.94;5175032;28;20066;-68
2021/09/01 05:00:09;;;;;;;14.10;5.25;;;;;;;15.65;100.00;102729.94;5173950;28;20090;-67
2021/09/01 05:02:40;;;;;;;12.20;5.30;;;;;;;15.67;100.00;102728.03;5177369;28;20081;-68
2021/09/01 05:05:11;;;;;;;15.15;5.15;;;;;;;15.65;100.00;102724.63;5174913;28;20023;-68
2021/09/01 05:07:43;;;;;;;11.25;5.47;;;;;;;15.67;100.00;102714.81;5168883;28;20041;-67
2021/09/01 05:10:14;;;;;;;12.23;5.15;;;;;;;15.69;100.00;102713.75;5174122;28;20062;-68
2021/09/01 05:12:48;;;;;;;17.10;6.20;;;;;;;15.64;100.00;102715.84;5175608;28;20015;-68
2021/09/01 05:15:20;;;;;;;12.55;5.88;;;;;;;15.65;100.00;102725.50;5165179;28;20026;-68
2021/09/01 05:17:51;;;;;;;16.90;5.32;;;;;;;15.62;100.00;102723.06;5177507;28;20056;-68
2021/09/01 05:20:23;;;;;;;15.80;5.82;;;;;;;15.58;100.00;102726.91;5177443;28;20022;-68
2021/09/01 05:23:02;;;;;;;12.63;5.30;;;;;;;15.65;100.00;102722.88;5171403;28;20110;-68
2021/09/01 05:25:57;;;;;;;15.00;5.15;;;;;;;15.76;100.00;102732.63;5189031;28;20054;-67
2021/09/01 05:28:32;;;;;;;15.43;5.47;;;;;;;15.64;100.00;102747.56;5168351;28;20039;-67
2021/09/01 05:31:06;;;;;;;14.52;5.75;;;;;;;15.61;100.00;102739.00;5176027;28;20031;-68
2021/09/01 05:33:41;;;;;;;17.77;6.35;;;;;;;15.60;100.00;102743.47;5177783;28;20117;-67
2021/09/01 05:36:12;;;;;;;13.15;5.72;;;;;;;15.61;100.00;102741.66;5179068;28;20029;-68
2021/09/01 05:38:46;;;;;;;12.65;5.13;;;;;;;15.66;100.00;102744.84;5174014;28;20027;-68
2021/09/01 05:41:17;;;;;;;17.38;6.55;;;;;;;15.64;100.00;102739.63;5170674;28;20059;-68
2021/09/01 05:43:51;;;;;;;16.25;5.85;;;;;;;15.67;100.00;102742.06;5190678;28;20496;-68
2021/09/01 05:46:22;;;;;;;15.57;6.00;;;;;;;15.68;100.00;102749.06;5170836;28;20122;-68
2021/09/01 05:48:55;;;;;;;13.93;5.43;;;;;;;15.69;100.00;102748.09;5163658;28;20198;-68
2021/09/01 05:51:26;;;;;;;15.55;5.97;;;;;;;15.74;100.00;102745.09;5166672;28;20062;-68
2021/09/01 05:53:58;;;;;;;16.75;5.88;;;;;;;15.74;100.00;102745.94;5155266;28;20066;-68
2021/09/01 05:56:34;;;;;;;18.15;6.05;;;;;;;15.79;100.00;102743.78;5158250;28;20027;-68
2021/09/01 05:59:09;;;;;;;15.65;5.75;;;;;;;15.81;100.00;102741.84;5168360;28;20065;-68
2021/09/01 06:01:50;;;;;;;23.38;6.70;;;;;;;15.79;100.00;102729.72;5157363;28;20086;-68
2021/09/01 06:04:24;;;;;;;20.70;6.97;;;;;;;15.80;100.00;102740.19;5164728;28;20034;-68
2021/09/01 06:06:59;;;;;;;15.93;6.47;;;;;;;15.85;100.00;102741.63;5169997;28;20576;-69
2021/09/01 06:09:34;;;;;;;11.57;6.10;;;;;;;15.87;100.00;102747.63;5169743;28;20053;-68
2021/09/01 06:12:06;;;;;;;18.05;7.32;;;;;;;15.84;100.00;102739.97;5175857;28;20789;-68
2021/09/01 06:14:38;;;;;;;20.05;7.90;;;;;;;15.86;100.00;102740.66;5166898;28;20043;-69
2021/09/01 06:17:10;;;;;;;14.85;7.47;;;;;;;15.88;100.00;102742.25;5167338;28;20026;-69
2021/09/01 06:19:41;;;;;;;16.70;7.78;;;;;;;15.89;100.00;102738.63;5169037;28;20034;-68
2021/09/01 06:22:14;;;;;;;16.42;7.22;;;;;;;15.91;100.00;102744.66;5169464;28;20031;-68
2021/09/01 06:24:45;;;;;;;14.90;7.30;;;;;;;15.92;100.00;102743.69;5175587;28;20106;-68
2021/09/01 06:27:16;;;;;;;19.73;7.18;;;;;;;15.93;100.00;102734.78;5173687;28;20380;-69
2021/09/01 06:29:48;;;;;;;16.15;7.68;;;;;;;15.95;100.00;102740.81;5170920;28;20058;-68
2021/09/01 06:32:19;;;;;;;16.92;7.80;;;;;;;15.95;100.00;102737.31;5170928;28;20473;-68
2021/09/01 06:34:50;;;;;;;16.95;8.18;;;;;;;15.96;100.00;102741.66;5166013;28;20548;-67
2021/09/01 06:37:21;;;;;;;22.17;7.88;;;;;;;16.00;100.00;102746.56;5176383;28;20042;-68
2021/09/01 06:39:53;;;;;;;19.02;7.90;;;;;;;16.00;100.00;102748.38;5167464;28;20042;-68
2021/09/01 06:42:26;;;;;;;13.45;7.70;;;;;;;16.04;100.00;102760.41;5161734;28;20043;-68
2021/09/01 06:44:57;;;;;;;16.33;8.40;;;;;;;16.08;100.00;102767.13;5159593;28;20027;-68
2021/09/01 06:47:46;;;;;;;19.67;10.27;;;;;;;16.21;100.00;102764.34;5163384;28;20138;-67
2021/09/01 06:50:22;;;;;;;16.17;9.10;;;;;;;16.10;100.00;102764.34;5165104;28;20074;-68
2021/09/01 06:52:55;;;;;;;20.92;10.10;;;;;;;16.15;100.00;102764.84;5166399;28;20741;-70
2021/09/01 06:55:26;;;;;;;20.85;9.35;;;;;;;16.20;100.00;102765.31;5164898;28;20032;-68
2021/09/01 06:57:57;;;;;;;19.90;9.75;;;;;;;16.22;100.00;102753.66;5174791;28;20030;-68
2021/09/01 07:00:29;;;;;;;17.60;9.90;;;;;;;16.23;100.00;102763.28;5174465;28;20038;-67
2021/09/01 07:03:00;;;;;;;16.35;9.35;;;;;;;16.31;100.00;102752.09;5173812;28;20333;-68
2021/09/01 07:05:31;;;;;;;20.80;9.80;;;;;;;16.35;100.00;102758.81;5176334;28;20019;-69
2021/09/01 07:08:14;;;;;;;18.98;8.57;;;;;;;16.46;100.00;102763.28;5170672;28;20088;-68
2021/09/01 07:10:45;;;;;;;21.35;9.13;;;;;;;16.32;100.00;102768.81;5173206;28;20066;-68
2021/09/01 07:13:17;;;;;;;17.20;8.73;;;;;;;16.41;100.00;102768.94;5177436;28;20066;-68
2021/09/01 07:15:49;;;;;;;17.75;8.77;;;;;;;16.39;100.00;102768.19;5176582;28;20516;-68
2021/09/01 07:18:20;;;;;;;18.50;8.30;;;;;;;16.44;100.00;102770.47;5169362;28;20027;-68
2021/09/01 07:20:51;;;;;;;15.25;7.72;;;;;;;16.45;100.00;102767.72;5175473;28;20058;-68
2021/09/01 07:23:23;;;;;;;17.08;8.63;;;;;;;16.47;100.00;102770.25;5174102;28;20515;-68
2021/09/01 07:25:54;;;;;;;16.83;8.00;;;;;;;16.48;100.00;102769.31;5168175;28;20034;-68
2021/09/01 07:28:25;;;;;;;18.08;6.72;;;;;;;16.56;100.00;102776.63;5168011;28;20584;-68
2021/09/01 07:30:57;;;;;;;15.98;6.47;;;;;;;16.56;100.00;102774.81;5166642;28;20023;-68
2021/09/01 07:33:29;;;;;;;16.10;7.32;;;;;;;16.58;100.00;102782.63;5164954;28;20078;-68
2021/09/01 07:36:00;;;;;;;12.93;6.70;;;;;;;16.59;100.00;102795.72;5167863;28;20023;-68
2021/09/01 07:38:32;;;;;;;15.75;7.20;;;;;;;16.61;100.00;102788.50;5176408;28;20049;-69
2021/09/01 07:41:03;;;;;;;17.77;7.40;;;;;;;16.63;100.00;102788.38;5174640;28;20035;-68
2021/09/01 07:43:34;;;;;;;16.75;6.88;;;;;;;16.66;100.00;102796.91;5170687;28;20423;-69
2021/09/01 07:46:06;;;;;;;16.67;7.25;;;;;;;16.71;100.00;102783.34;5173830;28;20489;-68
2021/09/01 07:48:37;;;;;;;13.65;6.40;;;;;;;16.72;100.00;102788.50;5162044;28;20046;-69
2021/09/01 07:51:09;;;;;;;10.63;6.10;;;;;;;16.75;100.00;102804.19;5169305;28;20448;-68
2021/09/01 07:53:40;;;;;;;15.85;6.55;;;;;;;16.82;100.00;102795.72;5167359;28;20061;-68
2021/09/01 07:56:11;;;;;;;17.38;7.13;;;;;;;16.89;100.00;102803.03;5165781;28;20027;-68
2021/09/01 07:58:42;;;;;;;14.57;6.82;;;;;;;16.86;100.00;102799.81;5170836;28;20803;-68
2021/09/01 08:01:14;;;;;;;14.65;6.53;;;;;;;16.91;100.00;102802.94;5165490;28;20035;-69
2021/09/01 08:03:45;;;;;;;15.88;6.38;;;;;;;16.88;100.00;102806.66;5164308;28;20023;-69
2021/09/01 08:06:16;;;;;;;12.20;6.03;;;;;;;16.94;100.00;102813.28;5170729;28;20071;-70
2021/09/01 08:08:48;;;;;;;14.15;6.47;;;;;;;16.94;100.00;102805.34;5172299;28;20026;-69
2021/09/01 08:11:19;;;;;;;14.98;6.13;;;;;;;16.91;100.00;102817.00;5169978;28;20023;-68
2021/09/01 08:13:51;;;;;;;13.63;6.30;;;;;;;16.98;100.00;102812.06;5173456;28;20622;-68
2021/09/01 08:16:22;;;;;;;17.38;6.47;;;;;;;17.07;100.00;102815.78;5167386;28;20568;-69
2021/09/01 08:18:54;;;;;;;10.57;6.45;;;;;;;17.05;100.00;102828.28;5164584;28;20050;-69
2021/09/01 08:21:25;;;;;;;15.43;7.65;;;;;;;17.13;100.00;102820.59;5164146;28;20031;-68
2021/09/01 08:23:57;;;;;;;13.90;6.60;;;;;;;17.15;100.00;102822.13;5160089;28;20034;-68
2021/09/01 08:26:28;;;;;;;14.20;7.50;;;;;;;17.19;100.00;102826.19;5165519;28;20102;-68
2021/09/01 08:28:59;;;;;;;15.20;6.82;;;;;;;17.23;100.00;102822.34;5160234;28;20063;-69
2021/09/01 08:31:30;;;;;;;16.80;7.85;;;;;;;17.31;100.00;102834.94;5161103;28;20031;-68
2021/09/01 08:34:02;;;;;;;20.70;6.70;;;;;;;17.25;100.00;102825.72;5159808;28;20027;-69
2021/09/01 08:36:33;;;;;;;15.98;6.88;;;;;;;17.35;100.00;102835.53;5163967;28;20033;-68
2021/09/01 08:39:05;;;;;;;15.48;7.55;;;;;;;17.37;100.00;102838.91;5165522;28;20031;-69
2021/09/01 08:41:37;;;;;;;17.35;7.40;;;;;;;17.33;100.00;102840.97;5172432;28;20424;-69
2021/09/01 08:44:08;;;;;;;15.85;6.78;;;;;;;17.38;100.00;102846.72;5163969;28;20027;-68
2021/09/01 08:46:42;;;;;;;13.37;6.40;;;;;;;17.47;100.00;102843.34;5161587;28;20497;-68
2021/09/01 08:49:14;;;;;;;16.83;7.20;;;;;;;17.45;100.00;102837.31;5156921;28;20058;-69
2021/09/01 08:51:51;;;;;;;20.70;8.63;;;;;;;17.49;100.00;102845.84;5158235;28;20031;-68
2021/09/01 08:54:23;;;;;;;15.18;7.38;;;;;;;17.46;100.00;102838.16;5164264;28;20386;-69
2021/09/01 08:56:54;;;;;;;14.85;7.28;;;;;;;17.55;100.00;102840.06;5156792;28;20033;-69
2021/09/01 08:59:26;;;;;;;10.48;5.93;;;;;;;17.66;100.00;102836.53;5159517;28;20031;-68
2021/09/01 09:01:57;;;;;;;13.88;6.32;;;;;;;17.68;100.00;102842.53;5165377;28;20034;-68
2021/09/01 09:04:30;;;;;;;14.23;5.72;;;;;;;17.68;100.00;102835.41;5168739;28;20065;-69
2021/09/01 09:07:04;;;;;;;12.57;5.22;;;;;;;17.67;100.00;102843.50;5166520;28;20026;-68
2021/09/01 09:09:38;;;;;;;15.80;5.30;;;;;;;17.74;100.00;102834.06;5159477;28;20027;-68
2021/09/01 09:12:10;;;;;;;13.85;4.55;;;;;;;17.69;100.00;102839.75;5167143;28;20027;-68
2021/09/01 09:14:47;;;;;;;16.95;5.05;;;;;;;17.86;100.00;102835.72;5170356;28;20035;-68
2021/09/01 09:17:20;;;;;;;13.15;5.40;;;;;;;17.86;100.00;102833.06;5170262;28;20023;-68
2021/09/01 09:19:55;;;;;;;12.75;5.45;;;;;;;17.89;100.00;102839.94;5169483;28;20470;-68
2021/09/01 09:22:32;;;;;;;14.93;5.88;;;;;;;17.93;100.00;102836.03;5166680;28;20045;-68
2021/09/01 09:25:21;;;;;;;14.90;5.55;;;;;;;18.04;100.00;102833.31;5168817;28;20026;-68
2021/09/01 09:27:55;;;;;;;14.50;5.75;;;;;;;18.02;100.00;102840.56;5170235;28;20034;-69
2021/09/01 09:30:33;;;;;;;15.02;5.93;;;;;;;18.19;100.00;102837.31;5149273;28;20058;-68
2021/09/01 09:33:16;;;;;;;11.65;4.72;;;;;;;18.27;100.00;102833.16;5146534;28;20063;-68
2021/09/01 09:35:54;;;;;;;13.85;5.55;;;;;;;18.37;100.00;102826.06;5173958;28;20029;-68
2021/09/01 09:38:27;;;;;;;9.02;4.80;;;;;;;18.33;100.00;102837.94;5174034;28;20031;-68
2021/09/01 09:40:59;;;;;;;;;;;;;;;18.71;100.00;102835.47;5169656;28;20560;-69
2021/09/01 09:43:31;;;;;;;6.00;3.25;;;;;;;18.41;100.00;102831.00;5174044;28;19918;-67
2021/09/01 09:46:10;;;;;;;8.10;3.00;;;;;;;18.47;100.00;102834.91;5172246;28;20022;-68
2021/09/01 09:48:44;;;;;;;7.85;3.00;;;;;;;18.41;100.00;102832.78;5169199;28;20077;-68
2021/09/01 09:51:34;;;;;;;8.45;2.97;;;;;;;18.38;100.00;102833.09;5174330;28;20074;-69
2021/09/01 09:54:15;;;;;;;9.55;3.72;;;;;;;18.49;100.00;102817.06;5166265;28;20113;-68
2021/09/01 09:56:47;;;;;;;6.93;3.10;;;;;;;18.56;100.00;102833.28;5169684;28;20038;-68
2021/09/01 09:59:21;;;;;;;9.73;4.15;;;;;;;18.51;100.00;102831.03;5169359;28;20069;-68
2021/09/01 10:01:52;;;;;;;14.10;4.07;;;;;;;18.45;100.00;102829.75;5172107;28;20038;-68
2021/09/01 10:04:26;;;;;;;13.32;3.88;;;;;;;18.45;100.00;102832.41;5175114;28;20660;-68
2021/09/01 10:06:58;;;;;;;13.10;3.88;;;;;;;18.42;100.00;102831.84;5171587;28;20911;-68
2021/09/01 10:09:29;;;;;;;10.93;4.10;;;;;;;18.35;100.00;102836.00;5169627;28;20062;-68
2021/09/01 10:12:00;;;;;;;10.83;4.00;;;;;;;18.35;100.00;102836.84;5165408;28;20066;-68
2021/09/01 10:14:32;;;;;;;8.57;3.37;;;;;;;18.40;100.00;102829.31;5170567;28;20038;-68
2021/09/01 10:17:07;;;;;;;7.97;3.77;;;;;;;18.35;100.00;102836.00;5169737;28;20034;-68
2021/09/01 10:19:39;;;;;;;15.20;4.32;;;;;;;18.30;100.00;102836.41;5174990;28;20540;-69
2021/09/01 10:22:10;;;;;;;9.07;3.67;;;;;;;18.33;100.00;102825.50;5174439;28;20061;-69
2021/09/01 10:24:43;;;;;;;9.80;4.17;;;;;;;18.30;100.00;102827.59;5173919;28;20481;-69
2021/09/01 10:27:28;;;;;;;9.38;3.67;;;;;;;18.36;100.00;102819.94;5172334;28;20027;-69
2021/09/01 10:30:04;;;;;;;13.40;4.78;;;;;;;18.36;100.00;102819.94;5173838;28;20045;-68
2021/09/01 10:32:51;;;;;;;9.88;4.57;;;;;;;18.35;100.00;102814.75;5174488;28;20058;-69
2021/09/01 10:35:25;;;;;;;9.50;4.60;;;;;;;18.34;100.00;102823.72;5169306;28;20362;-68
2021/09/01 10:37:58;;;;;;;12.32;4.90;;;;;;;18.40;100.00;102820.50;5169698;28;20033;-68
2021/09/01 10:40:30;;;;;;;11.88;4.10;;;;;;;18.35;100.00;102812.09;5170832;28;20033;-69
2021/09/01 10:43:19;;;;;;;9.70;4.22;;;;;;;18.59;100.00;102809.94;5166755;28;20459;-68
2021/09/01 10:45:50;;;;;;;9.13;3.95;;;;;;;18.53;100.00;102810.50;5159203;28;20109;-69
2021/09/01 10:48:21;;;;;;;10.65;4.40;;;;;;;18.66;100.00;102803.13;5160124;28;20051;-68
2021/09/01 10:50:53;;;;;;;11.63;4.33;;;;;;;18.81;100.00;102810.75;5159383;28;20042;-68
2021/09/01 10:53:26;;;;;;;12.40;4.70;;;;;;;18.81;100.00;102800.13;5161398;28;20034;-68
2021/09/01 10:56:12;;;;;;;11.93;4.25;;;;;;;18.73;100.00;102806.13;5156633;28;20066;-68
2021/09/01 10:58:45;;;;;;;9.57;3.88;;;;;;;18.79;100.00;102789.66;5165716;28;20063;-69
2021/09/01 11:01:17;;;;;;;;;;;;;;;19.30;100.00;102801.88;5157510;28;20485;-68
2021/09/01 11:03:50;;;;;;;14.88;3.95;;;;;;;18.92;100.00;102790.22;5165545;28;19966;-67
2021/09/01 11:06:23;;;;;;;8.32;3.80;;;;;;;19.11;100.00;102801.84;5165431;28;20156;-68
2021/09/01 11:09:09;;;;;;;11.70;4.82;;;;;;;19.17;100.00;102802.16;5165067;28;20042;-68
2021/09/01 11:11:45;;;;;;;8.93;4.10;;;;;;;19.41;100.00;102793.75;5164892;28;20039;-67
2021/09/01 11:14:30;;;;;;;11.77;5.32;;;;;;;19.48;100.00;102799.34;5168276;28;20400;-68
2021/09/01 11:17:08;;;;;;;9.65;4.28;;;;;;;19.45;100.00;102794.31;5164316;28;20035;-68
2021/09/01 11:19:41;;;;;;;13.55;4.55;;;;;;;19.45;100.00;102796.97;5164185;28;20392;-68
2021/09/01 11:22:20;;;;;;;9.55;3.50;;;;;;;19.52;100.00;102800.75;5168494;28;20051;-68
2021/09/01 11:25:08;;;;;;;8.88;3.30;;;;;;;19.51;100.00;102792.88;5161460;28;20489;-68
2021/09/01 11:27:47;;;;;;;7.90;3.35;;;;;;;19.36;100.00;102800.47;5161775;28;20090;-68
2021/09/01 11:30:19;;;;;;;11.10;3.30;;;;;;;19.31;100.00;102797.38;5156505;28;20069;-67
2021/09/01 11:32:55;;;;;;;8.63;3.47;;;;;;;19.30;100.00;102793.06;5159224;28;20122;-68
2021/09/01 11:35:29;;;;;;;10.88;3.35;;;;;;;19.28;100.00;102800.31;5161746;28;20034;-68
2021/09/01 11:38:05;;;;;;;8.70;3.20;;;;;;;19.19;100.00;102800.19;5162924;28;20035;-68